createdAt,value
2023-03-30T00:02:07.898Z,99005.88
2023-03-30T00:04:37.680Z,98988.78
2023-03-30T00:07:05.758Z,98994.72
2023-03-30T00:09:33.466Z,98996.22
2023-03-30T00:12:03.586Z,98987.72
2023-03-30T00:14:31.354Z,98984.25
2023-03-30T00:16:59.201Z,98987.63
2023-03-30T00:19:26.921Z,98989.41
2023-03-30T00:21:54.735Z,98989.38
2023-03-30T00:24:22.733Z,98979.09
2023-03-30T00:26:50.475Z,98988.41
2023-03-30T00:29:18.252Z,98991.88
2023-03-30T00:31:46.426Z,98986.81
2023-03-30T00:34:14.174Z,98988.34
2023-03-30T00:36:42.149Z,98988.41
2023-03-30T00:39:10.168Z,98995.41
2023-03-30T00:41:37.873Z,98993.06
2023-03-30T00:44:47.333Z,98989.97
2023-03-30T00:47:17.232Z,98994.84
2023-03-30T00:49:45.316Z,98990.47
2023-03-30T00:52:13.472Z,98985.16
2023-03-30T00:54:41.656Z,98991.25
2023-03-30T00:57:09.730Z,98995.00
2023-03-30T00:59:37.595Z,98989.69
2023-03-30T01:02:06.446Z,98989.50
2023-03-30T01:04:37.774Z,98985.06
2023-03-30T01:07:07.646Z,98994.28
2023-03-30T01:09:35.821Z,98993.28
2023-03-30T01:12:05.788Z,98990.56
2023-03-30T01:14:33.903Z,99002.47
2023-03-30T01:17:32.583Z,99009.38
2023-03-30T01:20:18.463Z,99006.28
2023-03-30T01:23:12.851Z,99007.25
2023-03-30T01:26:18.627Z,99000.38
2023-03-30T01:29:08.827Z,98996.03
2023-03-30T01:32:01.260Z,98999.72
2023-03-30T01:35:05.970Z,98999.66
2023-03-30T01:37:55.602Z,99001.34
2023-03-30T01:40:38.703Z,99005.53
2023-03-30T01:43:27.186Z,99017.63
2023-03-30T01:46:14.641Z,99023.66
2023-03-30T01:48:57.497Z,99019.53
2023-03-30T01:51:51.027Z,99018.63
2023-03-30T01:54:32.004Z,99021.91
2023-03-30T01:57:02.598Z,99024.47
2023-03-30T01:59:36.944Z,99032.34
2023-03-30T02:02:07.414Z,99036.53
2023-03-30T02:04:39.711Z,99028.72
2023-03-30T02:07:11.642Z,99027.84
2023-03-30T02:09:42.325Z,99027.53
2023-03-30T02:12:11.647Z,99030.88
2023-03-30T02:14:41.179Z,99036.81
2023-03-30T02:17:23.083Z,99034.41
2023-03-30T02:19:52.026Z,99040.97
2023-03-30T02:22:20.532Z,99044.50
2023-03-30T02:24:51.741Z,99047.66
2023-03-30T02:27:19.804Z,99048.47
2023-03-30T02:29:49.334Z,99051.22
2023-03-30T02:32:23.595Z,99057.84
2023-03-30T02:35:00.465Z,99062.81
2023-03-30T02:37:40.050Z,99059.81
2023-03-30T02:40:17.231Z,99066.97
2023-03-30T02:43:00.266Z,99063.09
2023-03-30T02:45:50.015Z,99062.47
2023-03-30T02:48:24.209Z,99063.19
2023-03-30T02:51:02.229Z,99050.88
2023-03-30T02:54:31.804Z,99056.00
2023-03-30T02:57:23.511Z,99062.53
2023-03-30T02:59:56.457Z,99060.69
2023-03-30T03:02:32.284Z,99060.75
2023-03-30T03:05:13.494Z,99069.13
2023-03-30T03:07:56.649Z,99074.84
2023-03-30T03:10:24.303Z,99068.44
2023-03-30T03:12:52.202Z,99071.69
2023-03-30T03:15:22.468Z,99064.81
2023-03-30T03:18:07.490Z,99069.97
2023-03-30T03:20:36.552Z,99075.06
2023-03-30T03:23:05.270Z,99081.81
2023-03-30T03:25:40.888Z,99071.69
2023-03-30T03:28:08.953Z,99083.66
2023-03-30T03:30:41.950Z,99075.19
2023-03-30T03:33:16.145Z,99080.47
2023-03-30T03:35:54.319Z,99084.75
2023-03-30T03:38:24.348Z,99068.44
2023-03-30T03:40:54.852Z,99066.81
2023-03-30T03:43:23.300Z,99076.38
2023-03-30T03:45:52.056Z,99086.91
2023-03-30T03:48:21.788Z,99090.41
2023-03-30T03:50:56.801Z,99088.94
2023-03-30T03:53:27.736Z,99081.28
2023-03-30T03:56:00.461Z,99081.38
2023-03-30T03:58:28.331Z,99084.88
2023-03-30T04:01:01.358Z,99104.63
2023-03-30T04:03:29.582Z,99100.91
2023-03-30T04:06:02.633Z,99093.13
2023-03-30T04:08:30.581Z,99105.97
2023-03-30T04:11:11.945Z,99107.53
2023-03-30T04:14:14.742Z,99122.03
2023-03-30T04:17:08.784Z,99114.13
2023-03-30T04:19:36.340Z,99111.44
2023-03-30T04:22:42.021Z,99122.56
2023-03-30T04:25:36.409Z,99122.75
2023-03-30T04:28:29.862Z,99115.16
2023-03-30T04:31:15.774Z,99125.47
2023-03-30T04:34:14.979Z,99125.41
2023-03-30T04:37:11.860Z,99118.00
2023-03-30T04:39:57.862Z,99118.91
2023-03-30T04:42:50.142Z,99124.31
2023-03-30T04:45:43.523Z,99120.94
2023-03-30T04:48:29.671Z,99133.84
2023-03-30T04:51:09.662Z,99127.34
2023-03-30T04:53:56.007Z,99119.06
2023-03-30T04:56:26.442Z,99120.97
2023-03-30T04:59:11.031Z,99115.09
2023-03-30T05:01:41.446Z,99123.16
2023-03-30T05:04:32.923Z,99119.81
2023-03-30T05:07:19.634Z,99119.13
2023-03-30T05:10:02.586Z,99117.41
2023-03-30T05:12:52.850Z,99115.81
2023-03-30T05:15:54.716Z,99107.44
2023-03-30T05:18:40.252Z,99108.56
2023-03-30T05:21:18.682Z,99112.09
2023-03-30T05:23:53.042Z,99123.06
2023-03-30T05:26:39.410Z,99110.22
2023-03-30T05:33:43.432Z,99119.13
2023-03-30T05:36:30.251Z,99122.44
2023-03-30T05:47:16.782Z,99137.75
2023-03-30T05:50:09.490Z,99148.09
2023-03-30T05:53:04.613Z,99137.06
2023-03-30T05:55:46.949Z,99140.72
2023-03-30T05:58:33.216Z,99140.66
2023-03-30T06:01:26.304Z,99146.88
2023-03-30T06:03:54.630Z,99146.00
2023-03-30T06:06:22.329Z,99148.16
2023-03-30T06:08:52.275Z,99151.94
2023-03-30T06:11:23.647Z,99145.16
2023-03-30T06:14:00.251Z,99157.31
2023-03-30T06:16:29.301Z,99159.09
2023-03-30T06:18:57.692Z,99157.34
2023-03-30T06:21:25.375Z,99154.81
2023-03-30T06:24:15.788Z,99156.88
2023-03-30T06:26:43.619Z,99167.34
2023-03-30T06:29:11.221Z,99162.16
2023-03-30T06:31:41.855Z,99166.22
2023-03-30T06:34:33.567Z,99155.06
2023-03-30T06:37:03.594Z,99163.84
2023-03-30T06:39:31.245Z,99158.03
2023-03-30T06:41:59.496Z,99163.72
2023-03-30T06:44:46.579Z,99153.38
2023-03-30T06:47:16.037Z,99161.06
2023-03-30T06:49:43.608Z,99143.81
2023-03-30T06:52:38.244Z,99154.13
2023-03-30T06:55:07.236Z,99147.84
2023-03-30T06:57:34.958Z,99153.50
2023-03-30T07:00:13.586Z,99151.53
2023-03-30T07:02:42.301Z,99152.81
2023-03-30T07:05:24.864Z,99158.53
2023-03-30T07:07:52.554Z,99149.38
2023-03-30T07:10:21.790Z,99142.88
2023-03-30T07:12:50.580Z,99148.69
2023-03-30T07:15:19.375Z,99140.47
2023-03-30T07:17:47.149Z,99144.19
2023-03-30T07:20:17.443Z,99145.03
2023-03-30T07:23:07.315Z,99145.84
2023-03-30T07:25:35.012Z,99154.47
2023-03-30T07:28:10.908Z,99153.50
2023-03-30T07:30:39.244Z,99146.38
2023-03-30T07:33:10.545Z,99154.63
2023-03-30T07:35:45.299Z,99150.78
2023-03-30T07:38:14.728Z,99160.41
2023-03-30T07:40:47.517Z,99155.22
2023-03-30T07:43:16.268Z,99151.84
2023-03-30T07:45:45.277Z,99161.75
2023-03-30T07:48:23.044Z,99161.25
2023-03-30T07:51:07.002Z,99157.72
2023-03-30T07:53:56.726Z,99159.69
2023-03-30T07:57:35.637Z,99162.28
2023-03-30T08:09:32.111Z,99177.38
2023-03-30T08:12:33.559Z,99186.63
2023-03-30T08:15:10.887Z,99181.06
2023-03-30T08:21:19.557Z,99172.59
2023-03-30T08:23:50.802Z,99188.84
2023-03-30T08:26:19.150Z,99184.69
2023-03-30T08:28:46.745Z,99185.72
2023-03-30T08:31:18.263Z,99184.09
2023-03-30T08:33:46.012Z,99181.09
2023-03-30T08:36:13.933Z,99183.84
2023-03-30T08:38:42.108Z,99174.31
2023-03-30T08:41:24.998Z,99186.41
2023-03-30T08:43:57.720Z,99191.56
2023-03-30T08:46:25.908Z,99193.72
2023-03-30T08:48:57.979Z,99193.28
2023-03-30T08:51:29.235Z,99187.91
2023-03-30T08:54:01.611Z,99197.03
2023-03-30T08:56:39.813Z,99196.66
2023-03-30T08:59:29.671Z,99195.09
2023-03-30T09:02:19.110Z,99199.22
2023-03-30T09:05:32.785Z,99195.44
2023-03-30T09:08:29.231Z,99197.31
2023-03-30T09:11:02.537Z,99199.41
2023-03-30T09:13:34.401Z,99203.34
2023-03-30T09:16:20.233Z,99201.28
2023-03-30T09:18:52.999Z,99200.09
2023-03-30T09:21:27.361Z,99203.41
2023-03-30T09:23:58.717Z,99209.88
2023-03-30T09:27:08.724Z,99217.72
2023-03-30T09:30:35.732Z,99215.81
2023-03-30T09:34:30.156Z,99226.69
2023-03-30T09:37:27.973Z,99224.84
2023-03-30T09:40:24.592Z,99220.31
2023-03-30T09:43:10.831Z,99238.16
2023-03-30T09:45:40.255Z,99245.72
2023-03-30T09:48:09.082Z,99241.00
2023-03-30T09:50:43.406Z,99246.09
2023-03-30T09:53:26.439Z,99244.50
2023-03-30T09:56:01.438Z,99252.13
2023-03-30T09:59:15.363Z,99241.25
2023-03-30T10:06:28.873Z,99248.41
2023-03-30T10:09:23.786Z,99235.31
2023-03-30T10:11:52.953Z,99251.69
2023-03-30T10:14:44.910Z,99262.50
2023-03-30T10:18:33.232Z,99269.78
2023-03-30T10:26:05.118Z,99260.97
2023-03-30T10:28:34.694Z,99254.28
2023-03-30T10:31:14.153Z,99259.72
2023-03-30T10:33:44.701Z,99255.66
2023-03-30T10:36:16.515Z,99267.56
2023-03-30T10:38:46.113Z,99270.69
2023-03-30T10:41:22.389Z,99282.38
2023-03-30T10:43:51.863Z,99273.41
2023-03-30T10:46:23.192Z,99280.19
2023-03-30T10:49:34.046Z,99280.31
2023-03-30T10:52:52.208Z,99288.34
2023-03-30T10:55:56.682Z,99285.19
2023-03-30T10:59:04.574Z,99284.59
2023-03-30T11:01:56.813Z,99285.78
2023-03-30T11:05:24.751Z,99283.06
2023-03-30T11:08:47.943Z,99277.09
2023-03-30T11:23:40.473Z,99274.84
2023-03-30T11:26:12.581Z,99253.16
2023-03-30T11:28:47.994Z,99256.13
2023-03-30T11:31:27.933Z,99258.56
2023-03-30T11:34:24.970Z,99263.75
2023-03-30T11:37:18.277Z,99269.84
2023-03-30T11:40:06.170Z,99278.44
2023-03-30T11:42:35.985Z,99271.19
2023-03-30T11:45:30.089Z,99274.81
2023-03-30T11:48:16.056Z,99266.84
2023-03-30T11:51:08.168Z,99273.56
2023-03-30T11:53:59.133Z,99279.38
2023-03-30T11:56:47.287Z,99282.03
2023-03-30T11:59:32.494Z,99275.19
2023-03-30T12:02:35.754Z,99271.94
2023-03-30T12:05:06.209Z,99270.47
2023-03-30T12:07:44.252Z,99269.13
2023-03-30T12:10:21.263Z,99265.81
2023-03-30T12:12:52.090Z,99262.63
2023-03-30T12:15:34.942Z,99273.97
2023-03-30T12:18:36.169Z,99271.31
2023-03-30T12:21:25.629Z,99268.13
2023-03-30T12:24:13.409Z,99279.97
2023-03-30T12:26:42.546Z,99287.84
2023-03-30T12:29:52.749Z,99285.78
2023-03-30T12:32:03.338Z,99293.25
2023-03-30T12:34:38.156Z,99290.63
2023-03-30T12:37:13.566Z,99293.03
2023-03-30T12:39:49.580Z,99286.81
2023-03-30T12:42:34.736Z,99288.00
2023-03-30T12:45:24.144Z,99287.59
2023-03-30T12:48:10.148Z,99285.56
2023-03-30T12:51:02.723Z,99292.47
2023-03-30T12:53:45.189Z,99289.81
2023-03-30T12:56:24.826Z,99283.84
2023-03-30T12:59:26.282Z,99283.78
2023-03-30T13:02:31.305Z,99279.25
2023-03-30T13:04:59.107Z,99282.91
2023-03-30T13:07:35.256Z,99280.25
2023-03-30T13:10:31.887Z,99275.16
2023-03-30T13:13:02.550Z,99274.56
2023-03-30T13:15:30.128Z,99270.94
2023-03-30T13:18:09.882Z,99280.59
2023-03-30T13:20:58.444Z,99287.78
2023-03-30T13:23:34.108Z,99279.72
2023-03-30T13:26:33.910Z,99278.38
2023-03-30T13:29:11.735Z,99287.16
2023-03-30T13:31:48.153Z,99293.75
2023-03-30T13:34:34.288Z,99299.78
2023-03-30T13:37:59.131Z,99295.69
2023-03-30T13:40:41.904Z,99286.75
2023-03-30T13:43:23.570Z,99295.22
2023-03-30T13:46:16.440Z,99290.59
2023-03-30T13:49:20.665Z,99285.19
2023-03-30T13:51:49.389Z,99284.03
2023-03-30T13:54:29.204Z,99283.97
2023-03-30T13:57:07.811Z,99282.88
2023-03-30T13:59:38.214Z,99273.59
2023-03-30T14:02:06.553Z,99276.31
2023-03-30T14:04:37.281Z,99280.78
2023-03-30T14:07:14.225Z,99280.44
2023-03-30T14:09:42.477Z,99287.19
2023-03-30T14:12:13.884Z,99283.41
2023-03-30T14:14:47.239Z,99286.25
2023-03-30T14:17:21.173Z,99280.06
2023-03-30T14:20:11.243Z,99289.53
2023-03-30T14:22:45.005Z,99286.03
2023-03-30T14:25:39.493Z,99285.53
2023-03-30T14:41:14.440Z,99298.72
2023-03-30T14:43:51.174Z,99294.38
2023-03-30T14:46:24.521Z,99303.91
2023-03-30T14:48:52.852Z,99312.22
2023-03-30T14:51:35.804Z,99304.41
2023-03-30T14:54:04.298Z,99300.69
2023-03-30T14:56:32.253Z,99308.47
2023-03-30T14:59:00.136Z,99294.63
2023-03-30T15:01:31.633Z,99303.78
2023-03-30T15:04:05.442Z,99306.41
2023-03-30T15:06:38.431Z,99310.69
2023-03-30T15:09:15.909Z,99321.03
2023-03-30T15:11:46.134Z,99326.03
2023-03-30T15:14:18.840Z,99321.75
2023-03-30T15:16:50.765Z,99327.69
2023-03-30T15:19:38.657Z,99328.56
2023-03-30T15:22:34.195Z,99327.81
2023-03-30T15:25:05.662Z,99333.75
2023-03-30T15:27:37.621Z,99328.44
2023-03-30T15:30:06.486Z,99333.03
2023-03-30T15:32:38.900Z,99344.47
2023-03-30T15:35:15.252Z,99331.50
2023-03-30T15:37:56.672Z,99351.31
2023-03-30T15:40:27.305Z,99344.16
2023-03-30T15:43:13.472Z,99343.50
2023-03-30T15:45:47.431Z,99345.47
2023-03-30T15:48:19.075Z,99341.91
2023-03-30T15:50:53.178Z,99344.47
2023-03-30T15:53:53.180Z,99334.34
2023-03-30T15:56:48.514Z,99337.31
2023-03-30T15:59:22.058Z,99347.31
2023-03-30T16:02:01.264Z,99338.72
2023-03-30T16:04:31.693Z,99341.19
2023-03-30T16:06:59.401Z,99341.25
2023-03-30T16:09:27.503Z,99335.03
2023-03-30T16:11:55.103Z,99337.38
2023-03-30T16:14:22.819Z,99343.47
2023-03-30T16:16:50.500Z,99353.66
2023-03-30T16:19:19.886Z,99360.31
2023-03-30T16:21:47.475Z,99353.31
2023-03-30T16:24:14.976Z,99359.38
2023-03-30T16:26:43.125Z,99356.66
2023-03-30T16:29:22.874Z,99358.38
2023-03-30T16:31:51.966Z,99352.00
2023-03-30T16:34:20.606Z,99362.19
2023-03-30T16:36:50.140Z,99359.84
2023-03-30T16:39:26.679Z,99360.94
2023-03-30T16:41:55.638Z,99370.16
2023-03-30T16:44:24.914Z,99365.06
2023-03-30T16:46:52.740Z,99359.19
2023-03-30T16:49:25.430Z,99368.66
2023-03-30T16:51:55.311Z,99375.00
2023-03-30T16:54:32.011Z,99379.66
2023-03-30T16:57:03.455Z,99371.78
2023-03-30T16:59:32.484Z,99367.66
2023-03-30T17:02:00.513Z,99370.47
2023-03-30T17:04:28.202Z,99369.59
2023-03-30T17:06:55.866Z,99372.88
2023-03-30T17:09:23.584Z,99359.00
2023-03-30T17:11:51.221Z,99370.31
2023-03-30T17:14:20.442Z,99370.41
2023-03-30T17:16:48.198Z,99365.41
2023-03-30T17:19:15.972Z,99370.47
2023-03-30T17:21:44.055Z,99364.38
2023-03-30T17:24:12.848Z,99370.41
2023-03-30T17:26:41.153Z,99364.38
2023-03-30T17:29:10.540Z,99359.16
2023-03-30T17:31:38.843Z,99365.13
2023-03-30T17:34:07.455Z,99371.72
2023-03-30T17:36:35.438Z,99376.72
2023-03-30T17:39:05.810Z,99356.31
2023-03-30T17:41:38.344Z,99364.63
2023-03-30T17:44:06.678Z,99365.25
2023-03-30T17:46:34.214Z,99360.09
2023-03-30T17:49:02.185Z,99361.41
2023-03-30T17:51:29.702Z,99349.31
2023-03-30T17:53:57.227Z,99356.41
2023-03-30T17:56:24.738Z,99364.13
2023-03-30T17:58:53.325Z,99353.88
2023-03-30T18:01:21.108Z,99358.16
2023-03-30T18:03:53.646Z,99359.47
2023-03-30T18:06:22.486Z,99362.81
2023-03-30T18:08:50.153Z,99368.31
2023-03-30T18:11:17.650Z,99364.25
2023-03-30T18:13:45.923Z,99359.03
2023-03-30T18:16:13.542Z,99362.00
2023-03-30T18:18:41.041Z,99362.94
2023-03-30T18:21:10.766Z,99365.69
2023-03-30T18:23:38.337Z,99362.34
2023-03-30T18:26:11.107Z,99369.25
2023-03-30T18:28:42.512Z,99362.50
2023-03-30T18:31:10.416Z,99358.13
2023-03-30T18:33:39.443Z,99362.88
2023-03-30T18:36:12.610Z,99363.03
2023-03-30T18:38:41.131Z,99355.53
2023-03-30T18:41:12.515Z,99355.69
2023-03-30T18:43:40.280Z,99355.06
2023-03-30T18:46:11.569Z,99348.22
2023-03-30T18:48:39.206Z,99348.41
2023-03-30T18:51:07.160Z,99335.94
2023-03-30T18:53:35.897Z,99334.09
2023-03-30T18:56:03.836Z,99336.97
2023-03-30T18:58:33.882Z,99332.50
2023-03-30T19:01:01.758Z,99333.38
2023-03-30T19:03:30.375Z,99326.41
2023-03-30T19:05:58.528Z,99336.72
2023-03-30T19:08:27.009Z,99332.44
2023-03-30T19:10:57.336Z,99333.38
2023-03-30T19:13:26.485Z,99324.66
2023-03-30T19:15:54.687Z,99320.97
2023-03-30T19:18:22.798Z,99321.91
2023-03-30T19:20:51.336Z,99308.03
2023-03-30T19:23:21.764Z,99323.44
2023-03-30T19:25:49.611Z,99316.69
2023-03-30T19:28:17.657Z,99325.59
2023-03-30T19:30:45.679Z,99308.34
2023-03-30T19:33:16.686Z,99325.53
2023-03-30T19:35:47.530Z,99313.84
2023-03-30T19:38:15.765Z,99317.25
2023-03-30T19:40:43.419Z,99307.66
2023-03-30T19:43:11.153Z,99309.56
2023-03-30T19:45:41.169Z,99305.91
2023-03-30T19:48:09.687Z,99296.50
2023-03-30T19:50:40.807Z,99309.41
2023-03-30T19:53:08.848Z,99301.34
2023-03-30T19:55:37.714Z,99303.19
2023-03-30T19:58:07.072Z,99298.91
2023-03-30T20:00:35.171Z,99287.78
2023-03-30T20:03:03.199Z,99281.09
2023-03-30T20:05:31.316Z,99287.78
2023-03-30T20:07:58.929Z,99286.25
2023-03-30T20:10:26.905Z,99279.34
2023-03-30T20:12:54.708Z,99281.09
2023-03-30T20:15:25.024Z,99286.78
2023-03-30T20:17:56.631Z,99288.22
2023-03-30T20:20:28.005Z,99283.84
2023-03-30T20:22:56.681Z,99286.38
2023-03-30T20:25:24.881Z,99289.03
2023-03-30T20:27:53.424Z,99290.84
2023-03-30T20:30:21.816Z,99276.31
2023-03-30T20:33:03.879Z,99291.19
2023-03-30T20:35:37.584Z,99280.06
2023-03-30T20:38:06.385Z,99278.28
2023-03-30T20:40:34.104Z,99274.88
2023-03-30T20:43:10.086Z,99273.63
2023-03-30T20:45:46.322Z,99279.81
2023-03-30T20:48:27.581Z,99273.47
2023-03-30T20:50:56.245Z,99268.94
2023-03-30T20:53:24.917Z,99257.66
2023-03-30T20:55:52.596Z,99254.25
2023-03-30T20:58:22.347Z,99258.28
2023-03-30T21:00:52.172Z,99255.56
2023-03-30T21:03:21.647Z,99245.41
2023-03-30T21:05:59.463Z,99249.31
2023-03-30T21:08:27.105Z,99238.66
2023-03-30T21:10:54.902Z,99242.06
2023-03-30T21:13:22.523Z,99243.03
2023-03-30T21:16:05.125Z,99242.94
2023-03-30T21:18:33.246Z,99241.19
2023-03-30T21:21:01.480Z,99250.75
2023-03-30T21:23:30.041Z,99242.25
2023-03-30T21:26:02.994Z,99246.66
2023-03-30T21:28:34.204Z,99245.78
2023-03-30T21:31:05.690Z,99238.31
2023-03-30T21:33:34.312Z,99236.38
2023-03-30T21:36:02.262Z,99230.28
2023-03-30T21:38:34.080Z,99235.22
2023-03-30T21:41:08.601Z,99230.19
2023-03-30T21:43:37.886Z,99236.94
2023-03-30T21:46:08.037Z,99239.66
2023-03-30T21:48:38.210Z,99228.53
2023-03-30T21:51:17.002Z,99247.94
2023-03-30T21:53:47.018Z,99238.31
2023-03-30T21:56:15.629Z,99235.84
2023-03-30T21:58:46.439Z,99236.66
2023-03-30T22:01:14.374Z,99234.13
2023-03-30T22:03:43.057Z,99234.97
2023-03-30T22:06:13.344Z,99241.13
2023-03-30T22:08:41.762Z,99240.78
2023-03-30T22:11:13.264Z,99221.94
2023-03-30T22:13:41.150Z,99235.63
2023-03-30T22:16:13.371Z,99239.03
2023-03-30T22:18:42.030Z,99240.06
2023-03-30T22:21:13.230Z,99237.78
2023-03-30T22:23:40.771Z,99227.53
2023-03-30T22:26:08.417Z,99228.50
2023-03-30T22:28:36.226Z,99221.69
2023-03-30T22:31:10.424Z,99227.78
2023-03-30T22:33:38.150Z,99217.34
2023-03-30T22:36:07.559Z,99210.31
2023-03-30T22:38:35.701Z,99225.88
2023-03-30T22:41:07.378Z,99222.28
2023-03-30T22:43:36.204Z,99226.50
2023-03-30T22:46:05.633Z,99223.22
2023-03-30T22:48:34.087Z,99211.19
2023-03-30T22:51:08.358Z,99221.56
2023-03-30T22:53:36.170Z,99211.19
2023-03-30T22:56:04.072Z,99212.19
2023-03-30T22:58:31.828Z,99211.25
2023-03-30T23:01:04.072Z,99210.03
2023-03-30T23:03:31.656Z,99207.56
2023-03-30T23:06:02.175Z,99209.97
2023-03-30T23:08:30.513Z,99216.72
2023-03-30T23:11:04.647Z,99204.53
2023-03-30T23:13:37.819Z,99207.06
2023-03-30T23:16:09.092Z,99203.06
2023-03-30T23:18:36.946Z,99198.13
2023-03-30T23:21:11.167Z,99203.94
2023-03-30T23:23:39.205Z,99184.16
2023-03-30T23:26:11.447Z,99187.81
2023-03-30T23:28:41.396Z,99183.63
2023-03-30T23:31:15.040Z,99187.97
2023-03-30T23:33:43.465Z,99185.34
2023-03-30T23:36:17.379Z,99179.22
2023-03-30T23:38:45.457Z,99176.88
2023-03-30T23:41:14.922Z,99179.00
2023-03-30T23:43:42.464Z,99176.59
2023-03-30T23:46:10.818Z,99178.19
2023-03-30T23:48:38.858Z,99183.34
2023-03-30T23:51:07.174Z,99173.19
2023-03-30T23:53:34.972Z,99177.47
2023-03-30T23:56:06.649Z,99173.19
2023-03-30T23:58:34.465Z,99175.38
